Time;durP1;ratioP1;P1;durP2;ratioP2;P2;SDS_P1;SDS_P2;PMS_P1;PMS_P2;Temp;Humidity;BMP_temperature;BMP_pressure;BME280_temperature;BME280_humidity;BME280_pressure;Samples;Min_cycle;Max_cycle;Signal;HPM_P1;HPM_P2
2022/05/11 00:01:00;;;;;;;8.57;7.68;;;17.70;99.90;;;;;;5015199;28;20425;-84
2022/05/11 00:03:26;;;;;;;9.30;8.13;;;17.80;99.90;;;;;;5013591;28;20962;-86
2022/05/11 00:05:52;;;;;;;8.68;7.18;;;17.80;99.90;;;;;;5013787;28;20377;-85
2022/05/11 00:08:18;;;;;;;9.13;8.15;;;17.70;99.90;;;;;;5014419;28;20772;-86
2022/05/11 00:10:44;;;;;;;8.90;7.95;;;17.70;99.90;;;;;;5031275;28;20798;-86
2022/05/11 00:13:10;;;;;;;10.13;8.40;;;17.80;99.90;;;;;;5031367;28;20409;-85
2022/05/11 00:15:35;;;;;;;10.00;7.65;;;17.70;99.90;;;;;;5031511;28;20374;-86
2022/05/11 00:18:02;;;;;;;9.63;7.80;;;17.80;99.90;;;;;;5031882;28;20852;-85
2022/05/11 00:20:28;;;;;;;9.02;7.80;;;17.70;99.90;;;;;;5031090;28;20381;-84
2022/05/11 00:23:01;;;;;;;8.32;7.53;;;17.70;99.90;;;;;;5013663;28;20377;-84
2022/05/11 00:25:28;;;;;;;9.10;8.20;;;17.80;99.90;;;;;;5012901;28;20990;-83
2022/05/11 00:28:26;;;;;;;8.83;7.90;;;17.80;99.90;;;;;;5013042;28;20898;-84
2022/05/11 00:30:52;;;;;;;9.70;7.65;;;17.80;99.90;;;;;;5012732;28;20417;-84
2022/05/11 00:33:21;;;;;;;15.73;8.18;;;17.70;99.90;;;;;;5017956;28;20804;-85
2022/05/11 00:35:50;;;;;;;11.47;8.43;;;17.50;99.90;;;;;;5018730;28;20389;-86
2022/05/11 00:38:49;;;;;;;9.48;7.45;;;17.40;99.90;;;;;;5035177;28;20378;-84
2022/05/11 00:41:15;;;;;;;10.15;8.30;;;17.30;99.90;;;;;;5013424;28;20385;-87
2022/05/11 00:43:50;;;;;;;9.40;8.50;;;17.30;99.90;;;;;;5018607;28;20473;-85
2022/05/11 00:46:35;;;;;;;8.00;7.20;;;17.30;99.90;;;;;;5018705;28;20365;-85
2022/05/11 00:51:56;;;;;;;8.50;7.30;;;17.30;99.90;;;;;;5034986;28;20389;-84
2022/05/11 00:54:23;;;;;;;8.00;7.20;;;17.30;99.90;;;;;;5017173;28;20385;-84
2022/05/11 00:57:19;;;;;;;8.10;7.22;;;17.30;99.90;;;;;;5034449;28;20979;-84
2022/05/11 01:03:17;;;;;;;8.40;7.55;;;17.70;99.90;;;;;;5034679;28;20937;-85
2022/05/11 01:05:44;;;;;;;10.37;7.90;;;17.60;99.90;;;;;;5017969;28;20377;-87
2022/05/11 01:08:17;;;;;;;8.43;7.60;;;17.50;99.90;;;;;;5019780;28;20377;-83
2022/05/11 01:10:43;;;;;;;10.13;7.63;;;17.40;99.90;;;;;;5019895;28;20824;-82
2022/05/11 01:13:14;;;;;;;8.18;7.38;;;17.30;99.90;;;;;;5019306;28;20446;-84
2022/05/11 01:15:54;;;;;;;7.45;6.70;;;17.30;99.90;;;;;;5017324;28;20381;-84
2022/05/11 01:18:20;;;;;;;7.63;6.93;;;17.30;99.90;;;;;;5018716;28;20373;-84
2022/05/11 01:20:57;;;;;;;10.40;7.07;;;17.30;99.90;;;;;;5017246;28;20384;-84
2022/05/11 01:23:48;;;;;;;7.95;7.10;;;17.30;99.90;;;;;;5018442;28;20388;-84
2022/05/11 01:26:16;;;;;;;9.48;7.07;;;17.40;99.90;;;;;;5036725;28;20373;-84
2022/05/11 01:28:44;;;;;;;8.03;7.03;;;17.30;99.90;;;;;;5018814;28;20366;-86
2022/05/11 01:31:11;;;;;;;8.10;7.33;;;17.30;99.90;;;;;;5038169;28;20441;-84
2022/05/11 01:33:46;;;;;;;8.82;7.75;;;17.30;99.90;;;;;;5019523;28;20369;-86
2022/05/11 01:36:31;;;;;;;8.70;7.80;;;17.20;99.90;;;;;;5036874;28;20385;-84
2022/05/11 01:39:11;;;;;;;8.88;8.10;;;17.20;99.90;;;;;;5019464;28;22364;-84
2022/05/11 01:41:52;;;;;;;8.10;7.22;;;17.30;99.90;;;;;;5017605;28;20447;-84
2022/05/11 01:44:25;;;;;;;8.75;7.57;;;17.20;99.90;;;;;;5018691;28;20436;-86
2022/05/11 01:47:00;;;;;;;8.68;7.78;;;17.20;99.90;;;;;;5015609;28;20381;-84
2022/05/11 01:49:52;;;;;;;8.75;7.45;;;17.20;99.90;;;;;;5014737;28;20893;-84
2022/05/11 01:52:26;;;;;;;11.68;7.78;;;17.20;99.90;;;;;;5015203;28;20396;-84
2022/05/11 01:54:52;;;;;;;8.93;8.02;;;17.20;99.90;;;;;;5015045;28;20380;-85
2022/05/11 01:57:52;;;;;;;8.82;7.80;;;17.20;99.90;;;;;;5014505;28;20396;-84
2022/05/11 02:00:50;;;;;;;9.05;7.88;;;17.20;99.90;;;;;;5011819;28;20369;-84
2022/05/11 02:03:26;;;;;;;7.85;7.10;;;17.20;99.90;;;;;;5002982;28;20515;-85
2022/05/11 02:08:51;;;;;;;10.77;7.68;;;17.20;99.90;;;;;;5032803;28;20516;-83
2022/05/11 02:11:18;;;;;;;8.27;7.40;;;17.20;99.90;;;;;;5014526;28;20444;-85
2022/05/11 02:14:03;;;;;;;7.60;6.80;;;17.10;99.90;;;;;;5014625;28;20951;-83
2022/05/11 02:16:29;;;;;;;8.13;7.35;;;17.10;99.90;;;;;;5013741;28;20879;-84
2022/05/11 02:18:55;;;;;;;16.00;8.60;;;17.10;99.90;;;;;;5014185;28;20385;-85
2022/05/11 02:21:22;;;;;;;11.43;8.00;;;17.10;99.90;;;;;;5032411;28;20862;-85
2022/05/11 02:24:25;;;;;;;11.27;7.35;;;17.10;99.90;;;;;;5014053;28;20844;-85
2022/05/11 02:27:15;;;;;;;9.50;7.65;;;17.10;99.90;;;;;;5012852;28;20929;-84
2022/05/11 02:30:03;;;;;;;7.90;7.10;;;17.00;99.90;;;;;;5031415;28;20373;-84
2022/05/11 02:32:28;;;;;;;11.07;7.07;;;17.00;99.90;;;;;;5014462;28;20416;-85
2022/05/11 02:35:12;;;;;;;8.20;7.35;;;17.00;99.90;;;;;;5032301;28;20951;-86
2022/05/11 02:37:43;;;;;;;8.30;7.50;;;17.00;99.90;;;;;;5014080;28;20911;-85
2022/05/11 02:40:10;;;;;;;7.85;7.13;;;17.00;99.90;;;;;;5015053;28;20487;-84
2022/05/11 02:42:36;;;;;;;8.40;7.50;;;17.00;99.90;;;;;;5032370;28;20858;-85
2022/05/11 02:45:04;;;;;;;10.17;8.60;;;17.00;99.90;;;;;;5015453;28;20428;-84
2022/05/11 02:47:29;;;;;;;8.93;8.02;;;17.00;99.90;;;;;;5013988;28;20385;-84
2022/05/11 02:49:55;;;;;;;9.48;7.80;;;17.10;99.90;;;;;;5014326;28;20389;-84
2022/05/11 02:52:30;;;;;;;9.10;8.07;;;17.00;99.90;;;;;;5014692;28;20396;-84
2022/05/11 02:54:56;;;;;;;10.70;8.83;;;17.00;99.90;;;;;;5014670;28;20741;-84
2022/05/11 02:57:21;;;;;;;9.38;8.43;;;16.90;99.90;;;;;;5032394;28;20374;-84
2022/05/11 02:59:49;;;;;;;10.18;8.75;;;16.90;99.90;;;;;;5014252;28;20794;-85
2022/05/11 03:02:17;;;;;;;9.30;8.27;;;16.80;99.90;;;;;;5015970;28;20381;-84
2022/05/11 03:04:42;;;;;;;10.82;9.73;;;16.70;99.90;;;;;;5033974;28;20855;-83
2022/05/11 03:07:08;;;;;;;11.60;9.70;;;16.50;99.90;;;;;;5033942;28;20409;-84
2022/05/11 03:09:33;;;;;;;10.80;9.65;;;16.50;99.90;;;;;;5018242;28;20389;-84
2022/05/11 03:12:00;;;;;;;11.53;10.43;;;16.40;99.90;;;;;;5016799;28;20912;-84
2022/05/11 03:14:25;;;;;;;11.07;10.07;;;16.30;99.90;;;;;;5033844;28;20401;-82
2022/05/11 03:16:51;;;;;;;13.35;10.63;;;16.40;99.90;;;;;;5035280;28;20365;-83
2022/05/11 03:19:17;;;;;;;11.97;10.87;;;16.40;99.90;;;;;;5013531;28;20385;-84
2022/05/11 03:21:42;;;;;;;11.97;10.63;;;16.40;99.90;;;;;;5031505;28;20416;-84
2022/05/11 03:24:08;;;;;;;11.98;10.73;;;16.40;99.90;;;;;;5013062;28;20381;-83
2022/05/11 03:26:35;;;;;;;11.93;10.90;;;16.40;99.90;;;;;;5013118;28;20932;-83
2022/05/11 03:29:05;;;;;;;12.15;10.95;;;16.40;99.90;;;;;;5030867;28;20898;-82
2022/05/11 03:31:34;;;;;;;12.02;10.95;;;16.40;99.90;;;;;;4996631;28;20397;-84
2022/05/11 03:36:44;;;;;;;12.48;11.35;;;16.20;99.90;;;;;;5030827;28;20897;-84
2022/05/11 03:39:10;;;;;;;13.05;11.63;;;16.20;99.90;;;;;;5029658;28;20385;-83
2022/05/11 03:41:36;;;;;;;16.15;11.82;;;16.20;99.90;;;;;;5012566;28;20420;-84
2022/05/11 03:44:02;;;;;;;13.02;11.63;;;16.30;99.90;;;;;;5012737;28;20464;-84
2022/05/11 03:46:28;;;;;;;12.20;11.00;;;16.30;99.90;;;;;;5012932;28;20524;-83
2022/05/11 03:48:53;;;;;;;13.57;12.27;;;16.40;99.90;;;;;;5012690;28;20408;-83
2022/05/11 03:51:19;;;;;;;12.52;11.23;;;16.40;99.90;;;;;;5012653;28;20480;-84
2022/05/11 03:53:47;;;;;;;12.07;10.93;;;16.30;99.90;;;;;;5030450;28;20377;-84
2022/05/11 03:56:18;;;;;;;13.23;11.90;;;16.40;99.90;;;;;;5012477;28;20386;-84
2022/05/11 03:58:47;;;;;;;12.52;11.43;;;16.40;99.90;;;;;;5012442;28;20411;-83
2022/05/11 04:01:15;;;;;;;13.60;12.25;;;16.40;99.90;;;;;;5013006;28;20392;-84
2022/05/11 04:03:41;;;;;;;13.43;12.23;;;16.40;99.90;;;;;;5012499;28;20381;-85
2022/05/11 04:06:08;;;;;;;14.07;12.70;;;16.40;99.90;;;;;;5029813;28;20460;-84
2022/05/11 04:08:34;;;;;;;14.20;12.73;;;16.50;99.90;;;;;;5012715;28;20400;-84
2022/05/11 04:11:00;;;;;;;13.05;11.93;;;16.50;99.90;;;;;;5013007;28;20864;-86
2022/05/11 04:13:31;;;;;;;14.77;13.33;;;16.50;99.90;;;;;;5029830;28;20413;-86
2022/05/11 04:16:00;;;;;;;14.05;12.73;;;16.50;99.90;;;;;;5014494;28;20756;-86
2022/05/11 04:18:25;;;;;;;14.98;13.40;;;16.50;99.90;;;;;;5032010;28;20381;-84
2022/05/11 04:20:51;;;;;;;14.18;12.77;;;16.50;99.90;;;;;;5014307;28;20385;-83
2022/05/11 04:23:17;;;;;;;14.40;12.90;;;16.60;99.90;;;;;;5032382;28;20926;-83
2022/05/11 04:25:43;;;;;;;14.98;12.95;;;16.60;99.90;;;;;;5016011;28;20714;-83
2022/05/11 04:28:11;;;;;;;14.27;12.98;;;16.60;99.90;;;;;;5025446;28;20429;-83
2022/05/11 04:30:38;;;;;;;14.07;12.68;;;16.60;99.90;;;;;;5056958;28;20376;-81
2022/05/11 04:33:05;;;;;;;14.23;12.82;;;16.70;99.90;;;;;;5058480;28;20915;-82
2022/05/11 04:35:30;;;;;;;14.07;12.77;;;16.60;99.90;;;;;;5058208;28;20371;-82
2022/05/11 04:37:57;;;;;;;13.77;12.63;;;16.60;99.90;;;;;;5058075;28;20869;-82
2022/05/11 04:40:23;;;;;;;14.43;13.13;;;16.70;99.90;;;;;;5056890;28;20400;-81
2022/05/11 04:42:49;;;;;;;13.93;12.52;;;16.70;99.90;;;;;;5059473;28;20368;-84
2022/05/11 04:45:16;;;;;;;15.00;13.60;;;16.70;99.90;;;;;;5039031;28;20778;-83
2022/05/11 04:47:42;;;;;;;15.02;13.52;;;16.70;99.90;;;;;;5028845;28;20387;-82
2022/05/11 04:50:09;;;;;;;15.65;14.25;;;16.70;99.90;;;;;;5037663;28;20781;-82
2022/05/11 04:52:35;;;;;;;14.70;13.30;;;16.70;99.90;;;;;;5054557;28;20391;-81
2022/05/11 04:55:02;;;;;;;16.92;15.23;;;16.70;99.90;;;;;;5033453;28;20396;-85
2022/05/11 04:57:28;;;;;;;17.27;15.68;;;16.70;99.90;;;;;;5043311;28;20866;-82
2022/05/11 04:59:53;;;;;;;16.00;14.50;;;16.70;99.90;;;;;;5043875;28;20413;-83
2022/05/11 05:02:22;;;;;;;16.03;14.53;;;16.70;99.90;;;;;;5047136;28;20400;-82
2022/05/11 05:04:48;;;;;;;16.17;14.67;;;16.70;99.90;;;;;;5044742;28;20415;-82
2022/05/11 05:07:14;;;;;;;17.80;16.10;;;16.60;99.90;;;;;;5046349;28;20402;-81
2022/05/11 05:09:41;;;;;;;18.02;16.40;;;16.70;99.90;;;;;;5047325;28;20376;-85
2022/05/11 05:12:08;;;;;;;18.33;16.63;;;16.70;99.90;;;;;;5059295;28;20764;-83
2022/05/11 05:14:34;;;;;;;17.90;16.20;;;16.80;99.90;;;;;;5041627;28;20409;-83
2022/05/11 05:17:08;;;;;;;17.23;15.63;;;16.70;99.90;;;;;;5022679;28;20383;-82
2022/05/11 05:19:35;;;;;;;17.30;15.77;;;16.80;99.90;;;;;;5048278;28;20454;-82
2022/05/11 05:22:03;;;;;;;17.88;16.17;;;16.90;99.90;;;;;;5050960;28;20388;-81
2022/05/11 05:24:30;;;;;;;16.93;15.30;;;16.90;99.90;;;;;;5046572;28;20406;-82
2022/05/11 05:26:56;;;;;;;16.97;15.40;;;17.10;99.90;;;;;;5029164;28;20387;-84
2022/05/11 05:32:06;;;;;;;16.90;15.30;;;17.40;99.90;;;;;;5045388;28;20393;-82
2022/05/11 05:34:31;;;;;;;16.00;14.50;;;17.70;99.90;;;;;;5044904;28;20360;-83
2022/05/11 05:36:57;;;;;;;18.02;16.23;;;17.80;99.90;;;;;;5043785;28;20389;-83
2022/05/11 05:39:23;;;;;;;14.50;13.20;;;18.00;99.90;;;;;;5042182;28;20740;-81
2022/05/11 05:41:48;;;;;;;15.87;14.27;;;18.10;99.90;;;;;;5044207;28;20441;-82
2022/05/11 05:44:14;;;;;;;16.40;14.90;;;18.20;99.90;;;;;;5042989;28;20413;-84
2022/05/11 05:46:39;;;;;;;16.57;14.77;;;18.20;99.90;;;;;;5042260;28;20438;-86
2022/05/11 05:49:05;;;;;;;15.63;14.18;;;18.30;99.90;;;;;;5043858;28;20380;-84
2022/05/11 05:51:31;;;;;;;15.95;14.43;;;18.30;99.90;;;;;;5024325;28;20382;-83
2022/05/11 05:53:57;;;;;;;16.20;14.80;;;18.50;99.90;;;;;;5041804;28;20379;-83
2022/05/11 05:56:23;;;;;;;16.50;14.90;;;18.60;99.90;;;;;;5026773;28;20726;-83
2022/05/11 05:58:49;;;;;;;16.55;14.18;;;18.50;99.90;;;;;;5039826;28;20389;-84
2022/05/11 06:01:19;;;;;;;15.43;14.13;;;18.60;99.90;;;;;;5036239;28;20357;-83
2022/05/11 06:03:44;;;;;;;15.40;13.80;;;18.60;99.90;;;;;;5048015;28;20372;-85
2022/05/11 06:06:10;;;;;;;15.18;13.85;;;18.60;99.90;;;;;;5033091;28;20866;-81
2022/05/11 06:08:37;;;;;;;15.07;13.23;;;18.70;99.90;;;;;;5048339;28;20391;-82
2022/05/11 06:11:03;;;;;;;14.70;13.43;;;18.70;99.90;;;;;;5041767;28;20871;-83
2022/05/11 06:13:29;;;;;;;14.70;13.20;;;18.90;99.90;;;;;;5042719;28;20397;-86
2022/05/11 06:15:56;;;;;;;13.68;12.30;;;18.80;99.90;;;;;;5043523;28;20720;-82
2022/05/11 06:18:23;;;;;;;13.68;12.35;;;18.90;99.90;;;;;;5044321;28;20442;-82
2022/05/11 06:20:51;;;;;;;14.10;12.63;;;18.90;99.90;;;;;;5043880;28;20379;-82
2022/05/11 06:23:18;;;;;;;14.40;13.02;;;18.80;99.90;;;;;;5026628;28;20868;-82
2022/05/11 06:25:44;;;;;;;13.65;12.35;;;18.90;99.90;;;;;;5045838;28;20371;-81
2022/05/11 06:28:09;;;;;;;13.25;11.98;;;19.00;99.90;;;;;;5044992;28;20923;-82
2022/05/11 06:30:35;;;;;;;12.03;10.93;;;19.10;99.90;;;;;;5027192;28;20377;-84
2022/05/11 06:33:02;;;;;;;13.35;12.00;;;19.20;99.90;;;;;;5044074;28;20384;-83
2022/05/11 06:35:28;;;;;;;11.52;10.55;;;19.30;99.90;;;;;;5045117;28;20426;-82
2022/05/11 06:37:55;;;;;;;11.88;10.68;;;19.40;99.90;;;;;;5044402;28;20429;-80
2022/05/11 06:40:27;;;;;;;13.10;11.00;;;19.40;99.90;;;;;;5045169;28;20379;-83
2022/05/11 06:42:53;;;;;;;11.07;10.07;;;19.60;99.90;;;;;;5023925;28;20835;-84
2022/05/11 06:45:19;;;;;;;11.32;10.07;;;19.80;99.90;;;;;;5042967;28;20880;-82
2022/05/11 06:47:46;;;;;;;10.82;9.73;;;19.90;99.90;;;;;;5044008;28;20940;-83
2022/05/11 06:50:12;;;;;;;10.60;9.57;;;20.00;99.90;;;;;;5024133;28;20412;-82
2022/05/11 06:52:38;;;;;;;10.68;9.13;;;20.20;99.90;;;;;;5041987;28;20396;-83
2022/05/11 07:00:49;;;;;;;9.60;8.65;;;20.70;99.90;;;;;;5038948;28;20535;-82
2022/05/11 07:03:15;;;;;;;10.40;9.13;;;20.80;99.90;;;;;;5042696;28;20833;-82
2022/05/11 07:05:43;;;;;;;10.75;8.95;;;20.70;99.90;;;;;;5040650;28;20379;-81
2022/05/11 07:08:10;;;;;;;9.80;8.90;;;20.80;99.90;;;;;;5044007;28;20391;-83
2022/05/11 07:10:39;;;;;;;11.02;8.88;;;20.70;99.90;;;;;;5040677;28;20448;-83
2022/05/11 07:13:05;;;;;;;9.90;8.63;;;20.80;99.90;;;;;;5024757;28;20393;-82
2022/05/11 07:15:31;;;;;;;9.07;8.18;;;21.00;99.90;;;;;;5048307;28;20922;-84
2022/05/11 07:17:59;;;;;;;8.77;7.88;;;21.10;99.90;;;;;;5042935;28;20368;-84
2022/05/11 07:20:36;;;;;;;10.40;8.10;;;21.20;99.90;;;;;;5024792;28;20802;-81
2022/05/11 07:23:07;;;;;;;8.85;7.70;;;21.30;99.90;;;;;;5041882;28;20381;-82
2022/05/11 07:25:33;;;;;;;8.52;7.63;;;21.30;99.90;;;;;;5025642;28;20398;-82
2022/05/11 07:28:00;;;;;;;8.68;7.80;;;21.40;99.90;;;;;;5043945;28;20424;-82
2022/05/11 07:30:32;;;;;;;10.45;8.00;;;21.40;99.90;;;;;;5025154;28;20777;-82
2022/05/11 07:32:59;;;;;;;8.05;7.25;;;21.30;99.90;;;;;;5022706;28;20417;-81
2022/05/11 07:35:27;;;;;;;8.75;7.78;;;21.20;99.90;;;;;;5047109;28;20389;-83
2022/05/11 07:38:08;;;;;;;7.95;7.25;;;21.30;99.90;;;;;;5045120;28;20637;-83
2022/05/11 07:40:33;;;;;;;8.68;7.78;;;21.40;99.90;;;;;;5041038;28;20431;-82
2022/05/11 07:43:00;;;;;;;8.90;8.00;;;21.40;99.90;;;;;;5023860;28;20898;-83
2022/05/11 07:45:26;;;;;;;8.38;7.68;;;21.40;99.90;;;;;;5025471;28;20397;-83
2022/05/11 07:47:52;;;;;;;8.13;7.43;;;21.60;99.90;;;;;;5024879;28;20466;-84
2022/05/11 07:50:21;;;;;;;8.50;7.60;;;21.80;99.90;;;;;;5023266;28;20421;-84
2022/05/11 07:52:47;;;;;;;8.35;7.25;;;22.10;99.90;;;;;;5041390;28;20391;-85
2022/05/11 07:55:14;;;;;;;9.00;7.63;;;22.40;99.90;;;;;;5041519;28;20377;-83
2022/05/11 08:00:25;;;;;;;9.45;7.45;;;22.80;99.90;;;;;;5045450;28;20369;-83
2022/05/11 08:02:52;;;;;;;8.73;7.10;;;23.10;99.90;;;;;;5042893;28;20374;-85
2022/05/11 08:05:19;;;;;;;7.37;6.43;;;23.30;99.90;;;;;;5028172;28;20388;-84
2022/05/11 08:07:52;;;;;;;9.70;6.60;;;23.40;99.90;;;;;;5026468;28;20484;-85
2022/05/11 08:10:20;;;;;;;6.50;5.90;;;23.60;99.90;;;;;;5024147;28;20389;-83
2022/05/11 08:12:46;;;;;;;9.35;6.45;;;23.50;99.90;;;;;;5044784;28;20435;-84
2022/05/11 08:15:14;;;;;;;7.82;5.93;;;23.30;99.90;;;;;;5043240;28;20389;-85
2022/05/11 08:17:42;;;;;;;6.40;5.40;;;23.10;99.90;;;;;;5024351;28;20382;-86
2022/05/11 08:20:14;;;;;;;8.50;6.15;;;23.20;99.90;;;;;;5025811;28;20886;-84
2022/05/11 08:22:41;;;;;;;6.53;5.80;;;23.20;99.90;;;;;;5025119;28;20389;-82
2022/05/11 08:25:07;;;;;;;6.03;5.38;;;23.20;99.90;;;;;;5042304;28;20462;-84
2022/05/11 08:27:33;;;;;;;6.93;5.47;;;23.20;99.90;;;;;;5024826;28;20378;-85
2022/05/11 08:35:29;;;;;;;6.90;5.85;;;23.70;99.90;;;;;;5041524;28;21246;-84
2022/05/11 08:37:55;;;;;;;7.73;5.03;;;23.80;99.90;;;;;;5028149;28;20447;-84
2022/05/11 08:40:52;;;;;;;6.38;4.85;;;23.90;99.90;;;;;;5021830;28;20421;-84
2022/05/11 08:43:19;;;;;;;8.98;4.97;;;24.00;99.90;;;;;;5006043;28;20873;-85
2022/05/11 08:45:54;;;;;;;8.82;5.20;;;24.40;99.90;;;;;;5023996;28;20871;-82
2022/05/11 08:48:34;;;;;;;7.72;4.85;;;24.60;99.90;;;;;;5020916;28;20417;-83
2022/05/11 08:51:02;;;;;;;7.22;4.78;;;24.80;99.90;;;;;;5041499;28;20378;-84
2022/05/11 08:54:14;;;;;;;7.35;5.18;;;24.70;99.90;;;;;;5024581;28;20403;-81
2022/05/11 08:56:43;;;;;;;7.60;4.88;;;24.90;99.90;;;;;;5027372;28;20395;-83
2022/05/11 08:59:32;;;;;;;6.82;5.03;;;25.00;99.90;;;;;;5044282;28;20462;-83
2022/05/11 09:02:13;;;;;;;6.90;5.27;;;25.30;99.90;;;;;;5044668;28;20402;-86
2022/05/11 09:04:53;;;;;;;5.95;4.60;;;25.70;99.90;;;;;;5045530;28;20373;-85
2022/05/11 09:07:19;;;;;;;7.07;4.80;;;25.90;99.90;;;;;;5043632;28;20478;-85
2022/05/11 09:09:45;;;;;;;5.97;4.93;;;26.00;99.80;;;;;;5029687;28;20377;-87
2022/05/11 09:12:11;;;;;;;10.00;5.13;;;26.10;99.90;;;;;;5044919;28;20455;-85
2022/05/11 09:14:59;;;;;;;6.47;5.20;;;26.10;99.40;;;;;;5046044;28;20745;-84
2022/05/11 09:17:43;;;;;;;6.83;5.40;;;26.10;98.70;;;;;;5046158;28;20466;-86
2022/05/11 09:20:16;;;;;;;7.03;5.33;;;26.20;97.80;;;;;;5047286;28;20383;-85
2022/05/11 09:22:58;;;;;;;6.67;4.80;;;26.40;97.40;;;;;;5045778;28;20393;-86
2022/05/11 09:25:27;;;;;;;7.20;5.20;;;;;;;;;;5047754;28;20419;-84
2022/05/11 09:28:12;;;;;;;8.32;5.45;;;;;;;;;;5054072;28;21058;-88
2022/05/11 09:30:54;;;;;;;6.80;5.20;;;27.00;96.10;;;;;;5044358;28;20927;-86
2022/05/11 09:33:25;;;;;;;7.07;5.20;;;27.00;95.40;;;;;;5055807;28;20920;-85
2022/05/11 09:35:51;;;;;;;7.38;5.28;;;26.90;96.60;;;;;;5017700;28;20392;-86
2022/05/11 09:38:16;;;;;;;6.50;5.47;;;26.80;96.90;;;;;;5018815;28;20476;-86
2022/05/11 09:40:54;;;;;;;7.43;5.40;;;26.50;96.80;;;;;;5035836;28;20382;-82
2022/05/11 09:43:36;;;;;;;6.75;5.43;;;26.40;97.10;;;;;;5034688;28;20490;-87
2022/05/11 09:46:28;;;;;;;8.25;5.43;;;26.50;97.90;;;;;;5023809;28;20400;-84
2022/05/11 09:48:57;;;;;;;7.28;5.70;;;26.60;97.10;;;;;;5016904;28;20536;-84
2022/05/11 09:51:33;;;;;;;8.48;6.15;;;26.70;97.80;;;;;;5017200;28;20414;-85
2022/05/11 09:54:18;;;;;;;8.40;5.80;;;26.70;97.10;;;;;;5033305;28;20442;-86
2022/05/11 09:57:17;;;;;;;6.97;6.00;;;26.80;96.60;;;;;;5053215;28;20368;-85
2022/05/11 09:59:51;;;;;;;11.82;6.28;;;26.60;96.40;;;;;;5035561;28;20379;-86
2022/05/11 10:02:23;;;;;;;8.45;5.65;;;26.50;96.50;;;;;;5054652;28;20809;-86
2022/05/11 10:05:09;;;;;;;8.52;6.03;;;26.50;96.90;;;;;;5052473;28;20399;-86
2022/05/11 10:08:01;;;;;;;8.43;5.70;;;26.40;96.30;;;;;;5054245;28;20376;-86
2022/05/11 10:10:43;;;;;;;7.95;5.93;;;26.50;97.20;;;;;;5042486;28;20480;-85
2022/05/11 10:13:23;;;;;;;5.82;5.20;;;26.80;96.50;;;;;;5055099;28;20880;-86
2022/05/11 10:21:57;;;;;;;7.80;4.53;;;27.60;94.50;;;;;;5049499;28;20373;-86
2022/05/11 10:24:30;;;;;;;8.27;5.40;;;28.10;94.90;;;;;;5036853;28;20374;-85
2022/05/11 10:27:23;;;;;;;5.68;4.90;;;28.60;93.30;;;;;;5037006;28;20372;-86
2022/05/11 10:30:04;;;;;;;5.85;5.03;;;28.60;93.20;;;;;;5037218;28;20453;-86
2022/05/11 10:32:38;;;;;;;7.90;5.33;;;28.70;93.30;;;;;;5035238;28;20413;-88
2022/05/11 10:35:22;;;;;;;7.18;5.03;;;28.80;94.10;;;;;;5035634;28;20483;-84
2022/05/11 10:37:50;;;;;;;8.48;5.22;;;28.80;92.60;;;;;;5016177;28;20382;-85
2022/05/11 10:40:46;;;;;;;5.95;4.68;;;28.80;92.50;;;;;;5035826;28;20393;-85
2022/05/11 10:43:34;;;;;;;6.97;4.22;;;;;;;;;;5035376;28;20374;-85
2022/05/11 10:46:11;;;;;;;5.95;4.32;;;29.10;90.50;;;;;;5018215;28;20457;-86
2022/05/11 10:49:05;;;;;;;5.97;4.10;;;29.40;91.00;;;;;;5037028;28;20394;-85
2022/05/11 10:52:06;;;;;;;5.82;4.40;;;29.20;90.40;;;;;;5032082;28;20382;-84
2022/05/11 10:54:48;;;;;;;6.60;4.35;;;29.10;90.00;;;;;;5052739;28;20378;-85
2022/05/11 10:57:44;;;;;;;6.93;4.18;;;29.20;88.60;;;;;;5053419;28;20508;-87
2022/05/11 11:00:32;;;;;;;5.15;3.90;;;29.10;89.20;;;;;;5051421;28;20401;-86
2022/05/11 11:03:23;;;;;;;6.57;4.00;;;29.00;89.60;;;;;;5035018;28;20393;-86
2022/05/11 11:09:15;;;;;;;5.65;4.20;;;29.00;88.20;;;;;;5034411;28;20481;-85
2022/05/11 11:11:49;;;;;;;7.33;4.00;;;28.80;87.60;;;;;;5026546;28;21196;-86
2022/05/11 11:14:26;;;;;;;5.90;4.05;;;28.40;86.40;;;;;;5034373;28;20374;-82
2022/05/11 11:16:52;;;;;;;7.60;4.10;;;28.20;89.60;;;;;;5032906;28;20825;-82
2022/05/11 11:19:19;;;;;;;11.18;4.35;;;28.50;91.40;;;;;;5051607;28;20396;-83
2022/05/11 11:21:45;;;;;;;6.67;4.07;;;28.80;91.20;;;;;;5051072;28;20380;-83
2022/05/11 11:24:29;;;;;;;7.30;3.90;;;29.20;89.20;;;;;;5040791;28;20399;-85
2022/05/11 11:27:01;;;;;;;7.15;3.60;;;29.50;86.90;;;;;;5050584;28;20399;-85
2022/05/11 11:29:36;;;;;;;8.45;3.72;;;29.50;83.40;;;;;;5031604;28;20455;-83
2022/05/11 11:32:11;;;;;;;6.45;3.75;;;29.20;85.50;;;;;;5023283;28;20563;-85
2022/05/11 11:34:39;;;;;;;6.88;4.00;;;28.60;85.70;;;;;;5034187;28;20383;-85
2022/05/11 11:37:23;;;;;;;8.20;3.97;;;28.40;86.80;;;;;;5046156;28;20371;-83
2022/05/11 11:39:55;;;;;;;5.00;3.42;;;28.70;86.00;;;;;;5042207;28;20414;-88
2022/05/11 11:42:31;;;;;;;6.27;3.67;;;28.90;86.70;;;;;;5032234;28;20721;-84
2022/05/11 11:44:56;;;;;;;8.10;3.80;;;29.20;85.20;;;;;;5013872;28;20412;-84
2022/05/11 11:47:26;;;;;;;6.78;3.40;;;29.30;85.80;;;;;;5048282;28;20947;-84
2022/05/11 11:49:58;;;;;;;6.38;3.80;;;29.40;85.90;;;;;;5023426;28;20400;-87
2022/05/11 11:52:43;;;;;;;6.67;3.47;;;29.50;85.00;;;;;;5027955;28;20545;-86
2022/05/11 11:55:30;;;;;;;11.40;3.53;;;29.40;83.00;;;;;;5031516;28;20373;-85
2022/05/11 11:58:11;;;;;;;4.75;3.35;;;29.50;80.00;;;;;;5033022;28;20382;-85
2022/05/11 12:00:45;;;;;;;6.05;3.20;;;29.70;81.70;;;;;;5027215;28;20396;-84
2022/05/11 12:03:23;;;;;;;7.50;3.50;;;29.70;77.80;;;;;;5033895;28;20372;-85
2022/05/11 12:05:55;;;;;;;7.82;3.40;;;29.40;76.20;;;;;;5052241;28;20380;-86
2022/05/11 12:17:00;;;;;;;5.10;3.33;;;30.30;76.60;;;;;;5052298;28;20379;-85
2022/05/11 12:19:34;;;;;;;11.20;3.43;;;30.30;75.90;;;;;;5053335;28;20371;-87
2022/05/11 12:22:16;;;;;;;6.20;3.63;;;30.40;76.60;;;;;;5053494;28;20390;-85
2022/05/11 12:24:49;;;;;;;7.18;3.40;;;30.30;75.60;;;;;;5035438;28;20375;-85
2022/05/11 12:27:31;;;;;;;9.52;3.70;;;30.10;78.20;;;;;;5034687;28;20983;-84
2022/05/11 12:30:18;;;;;;;9.15;3.50;;;29.60;77.20;;;;;;5034132;28;20864;-86
2022/05/11 12:33:04;;;;;;;9.00;3.47;;;29.50;77.50;;;;;;5033969;28;20437;-86
2022/05/11 12:35:31;;;;;;;4.07;3.20;;;29.30;77.70;;;;;;5051775;28;20387;-84
2022/05/11 12:38:05;;;;;;;4.80;3.50;;;29.40;79.50;;;;;;5051664;28;20409;-84
2022/05/11 12:40:43;;;;;;;7.85;3.85;;;29.70;78.80;;;;;;5051293;28;20487;-85
2022/05/11 12:43:29;;;;;;;6.47;3.83;;;29.80;77.90;;;;;;5050441;28;20418;-85
2022/05/11 12:46:01;;;;;;;6.43;4.00;;;29.80;80.20;;;;;;5051223;28;20367;-84
2022/05/11 12:48:34;;;;;;;6.13;3.50;;;29.90;79.50;;;;;;5033863;28;20399;-85
2022/05/11 12:51:12;;;;;;;6.38;3.53;;;29.80;80.90;;;;;;5050847;28;20378;-81
2022/05/11 12:53:47;;;;;;;7.90;3.95;;;29.80;79.50;;;;;;5050920;28;20395;-85
2022/05/11 12:56:20;;;;;;;7.18;5.30;;;29.60;78.60;;;;;;5050196;28;20742;-83
2022/05/11 12:58:52;;;;;;;5.35;3.45;;;29.60;77.50;;;;;;5051451;28;20415;-84
2022/05/11 13:01:23;;;;;;;7.88;3.55;;;29.40;76.50;;;;;;5051140;28;20395;-82
2022/05/11 13:03:51;;;;;;;8.90;3.80;;;29.30;76.10;;;;;;5034430;28;20380;-84
2022/05/11 13:06:26;;;;;;;8.23;3.47;;;29.10;77.70;;;;;;5034207;28;20400;-85
2022/05/11 13:08:55;;;;;;;7.43;3.90;;;29.30;77.10;;;;;;5051237;28;20379;-86
2022/05/11 13:11:25;;;;;;;7.50;4.05;;;29.30;78.10;;;;;;5032703;28;20487;-82
2022/05/11 13:13:55;;;;;;;5.35;3.70;;;29.40;79.00;;;;;;5050123;28;20400;-85
2022/05/11 13:16:27;;;;;;;9.93;3.67;;;29.60;78.70;;;;;;5033300;28;20390;-83
2022/05/11 13:19:07;;;;;;;7.05;3.60;;;29.90;75.50;;;;;;5050893;28;20376;-83
2022/05/11 13:21:35;;;;;;;5.70;3.30;;;29.90;76.60;;;;;;5051116;28;20407;-83
2022/05/11 13:24:01;;;;;;;7.57;3.10;;;29.90;75.00;;;;;;5032517;28;20380;-83
2022/05/11 13:26:47;;;;;;;6.75;3.67;;;30.10;76.90;;;;;;5032069;28;20400;-85
2022/05/11 13:29:23;;;;;;;6.93;4.07;;;30.30;75.10;;;;;;5033263;28;20403;-84
2022/05/11 13:32:09;;;;;;;7.23;3.50;;;30.40;74.00;;;;;;5050678;28;20371;-85
2022/05/11 13:34:39;;;;;;;8.40;3.45;;;30.30;72.70;;;;;;5033521;28;20383;-84
2022/05/11 13:37:24;;;;;;;7.80;3.17;;;30.00;73.10;;;;;;5052062;28;20390;-84
2022/05/11 13:39:50;;;;;;;6.10;2.90;;;30.00;72.10;;;;;;5054937;28;20463;-84
2022/05/11 13:42:20;;;;;;;6.13;3.00;;;30.00;72.50;;;;;;5035791;28;20510;-83
2022/05/11 13:44:52;;;;;;;5.25;3.00;;;30.00;72.50;;;;;;5055111;28;20936;-82
2022/05/11 13:50:36;;;;;;;6.47;2.97;;;30.00;72.10;;;;;;5055109;28;20907;-83
2022/05/11 13:53:25;;;;;;;10.38;3.50;;;29.70;72.00;;;;;;5053785;28;20399;-83
2022/05/11 13:56:21;;;;;;;7.10;3.00;;;29.40;72.30;;;;;;5055356;28;20378;-81